PST,Max TemperatureF,Mean TemperatureF,Min TemperatureF,Max Dew PointF,MeanDew PointF,Min DewpointF,Max Humidity, Mean Humidity, Min Humidity, Max Sea Level PressureIn, Mean Sea Level PressureIn, Min Sea Level PressureIn, Max VisibilityMiles, Mean VisibilityMiles, Min VisibilityMiles, Max Wind SpeedMPH, Mean Wind SpeedMPH, Max Gust SpeedMPH,PrecipitationIn, CloudCover, Events, WindDirDegrees
2012-11-1,55,48,41,52,46,43,100,89,76,30.04,29.89,29.82,10,9,1,14,5,18,0.08,7,,208
2012-11-2,55,48,41,50,44,39,100,89,67,30.13,30.09,30.05,10,9,1,10,4,,0.00,6,,114
2012-11-3,50,46,42,50,44,39,100,96,87,30.17,30.10,30.06,10,8,2,13,7,,0.25,8,,121
2012-11-4,57,52,48,54,51,48,100,87,77,30.33,30.28,30.17,10,10,10,13,5,,0.01,8,,172
2012-11-5,60,48,37,52,47,36,93,82,68,30.27,30.24,30.18,10,8,0,15,8,17,0.00,5,,209
2012-11-6,57,46,35,48,44,34,100,89,67,30.22,30.03,29.85,10,6,0,13,6,17,0.02,6,,54
2012-11-7,51,40,30,48,34,25,88,69,46,30.02,29.96,29.86,10,10,8,20,9,24,0.06,4,,210
2012-11-8,42,35,28,30,28,25,93,82,53,29.97,29.77,29.68,10,8,1,21,12,25,0.07,4,,34
2012-11-9,30,27,24,27,24,19,93,86,74,29.88,29.81,29.72,10,8,1,22,14,26,0.01,8,,24
2012-11-10,28,22,15,21,17,9,100,77,58,30.16,30.02,29.88,10,10,10,16,11,20,0.00,4,,29
2012-11-11,32,28,24,28,24,19,93,82,74,30.31,30.26,30.16,10,10,5,9,4,,0.00,8,,149
2012-11-12,35,32,28,34,30,25,100,90,80,30.28,30.23,30.20,10,4,1,9,4,,0.40,8,,153
2012-11-13,37,36,35,36,34,30,100,92,81,30.25,30.21,30.15,10,9,4,10,4,,0.02,8,,164
2012-11-14,37,36,35,36,35,34,93,92,87,30.33,30.24,30.14,10,8,2,13,6,,0.03,8,,244
2012-11-15,42,37,32,36,32,30,100,86,70,30.33,30.17,30.00,10,8,0,16,8,20,0.00,6,,51
2012-11-16,46,40,33,37,33,28,100,83,66,30.00,29.96,29.93,10,10,6,10,7,,0.00,6,,61
2012-11-17,44,40,35,43,36,34,93,87,71,29.93,29.74,29.57,10,9,0,23,9,30,0.08,8,,49
2012-11-18,44,40,35,37,32,28,93,74,57,29.92,29.87,29.70,10,10,7,18,9,22,0.07,7,,177
2012-11-19,46,42,37,45,39,30,100,87,65,29.88,29.80,29.72,10,10,7,14,8,24,0.31,8,,193
2012-11-20,46,44,42,46,43,43,100,95,93,29.82,29.76,29.70,10,10,7,21,9,26,0.22,8,,174
2012-11-21,44,40,33,43,34,25,93,77,61,30.17,29.83,29.63,10,10,3,26,10,40,0.04,8,,219
2012-11-22,41,36,32,30,29,27,87,78,61,30.46,30.38,30.18,10,10,10,20,8,17,0.00,5,,139
2012-11-23,42,38,33,36,31,28,87,80,70,30.38,30.21,30.04,10,10,8,12,7,,0.26,7,,75
2012-11-24,44,38,32,45,36,32,100,99,93,30.13,30.09,30.03,10,10,6,17,7,25,0.01,7,,245
2012-11-25,39,32,23,34,30,19,100,90,70,30.33,30.21,30.09,10,9,2,14,5,,0.00,4,,244
2012-11-26,37,29,21,30,26,19,100,89,70,30.32,30.24,30.17,10,9,0,14,5,,0.00,2,,62
2012-11-27,35,32,28,28,26,25,86,81,70,30.21,30.16,30.09,10,10,10,15,10,,0.00,4,,50
2012-11-28,37,32,28,34,28,25,100,81,70,30.10,29.93,29.80,10,10,7,21,11,24,0.00,4,,47
2012-11-29,41,36,32,39,37,32,100,100,100,29.87,29.78,29.66,10,6,0,10,6,,0.01,8,,39
2012-11-30,48,44,39,46,43,37,100,93,76,29.65,29.59,29.54,10,9,3,16,5,22,0.03,8,,173